createdAt,value
2023-05-02T00:00:41.267Z,2.58
2023-05-02T00:03:08.197Z,2.20
2023-05-02T00:05:35.433Z,3.03
2023-05-02T00:08:01.938Z,2.50
2023-05-02T00:10:28.250Z,2.30
2023-05-02T00:12:54.754Z,1.95
2023-05-02T00:15:21.080Z,2.88
2023-05-02T00:17:47.447Z,1.52
2023-05-02T00:20:13.892Z,2.22
2023-05-02T00:22:40.452Z,1.48
2023-05-02T00:25:07.298Z,1.77
2023-05-02T00:27:33.748Z,1.70
2023-05-02T00:30:00.570Z,1.33
2023-05-02T00:32:27.538Z,1.95
2023-05-02T00:34:54.147Z,2.67
2023-05-02T00:37:20.564Z,1.95
2023-05-02T00:39:46.885Z,4.00
2023-05-02T00:42:13.290Z,3.75
2023-05-02T00:44:40.525Z,3.50
2023-05-02T00:47:06.862Z,4.63
2023-05-02T00:49:33.207Z,3.95
2023-05-02T00:51:59.606Z,5.00
2023-05-02T00:54:26.344Z,4.18
2023-05-02T00:56:52.787Z,4.50
2023-05-02T00:59:19.210Z,4.22
2023-05-02T01:01:51.531Z,7.18
2023-05-02T01:04:23.342Z,3.55
2023-05-02T01:07:10.820Z,3.72
2023-05-02T01:09:37.148Z,3.08
2023-05-02T01:12:03.474Z,3.13
2023-05-02T01:14:31.379Z,4.25
2023-05-02T01:16:58.849Z,3.78
2023-05-02T01:19:28.016Z,3.55
2023-05-02T01:21:55.316Z,3.08
2023-05-02T01:24:32.581Z,3.38
2023-05-02T01:27:03.867Z,4.82
2023-05-02T01:29:31.425Z,5.63
2023-05-02T01:31:58.827Z,6.30
2023-05-02T01:34:25.502Z,4.32
2023-05-02T01:36:52.058Z,5.10
2023-05-02T01:39:20.374Z,6.93
2023-05-02T01:41:49.053Z,5.22
2023-05-02T01:44:17.150Z,4.63
2023-05-02T01:46:44.437Z,5.30
2023-05-02T01:49:11.795Z,6.68
2023-05-02T01:51:43.795Z,5.85
2023-05-02T01:56:37.972Z,7.43
2023-05-02T01:59:08.916Z,9.20
2023-05-02T02:01:36.239Z,7.53
2023-05-02T02:04:04.414Z,7.53
2023-05-02T02:06:31.311Z,11.93
2023-05-02T02:08:57.720Z,14.02
2023-05-02T02:11:29.402Z,11.52
2023-05-02T02:14:02.014Z,13.70
2023-05-02T02:16:30.788Z,15.13
2023-05-02T02:18:59.040Z,19.45
2023-05-02T02:21:26.873Z,14.85
2023-05-02T02:23:55.943Z,15.88
2023-05-02T02:26:22.577Z,12.00
2023-05-02T02:28:49.021Z,13.70
2023-05-02T02:31:15.802Z,11.93
2023-05-02T02:33:42.245Z,12.65
2023-05-02T02:36:13.229Z,12.80
2023-05-02T02:38:45.962Z,12.38
2023-05-02T02:41:14.543Z,14.00
2023-05-02T02:44:01.631Z,12.90
2023-05-02T02:46:46.690Z,10.68
2023-05-02T02:49:42.431Z,16.60
2023-05-02T02:52:34.815Z,13.88
2023-05-02T02:57:32.487Z,15.63
2023-05-02T03:00:05.728Z,14.82
2023-05-02T03:02:33.300Z,20.30
2023-05-02T03:05:01.218Z,15.77
2023-05-02T03:07:28.219Z,11.05
2023-05-02T03:09:54.594Z,11.77
2023-05-02T03:12:21.160Z,12.82
2023-05-02T03:14:47.604Z,12.18
2023-05-02T03:17:13.981Z,8.70
2023-05-02T03:19:41.037Z,10.70
2023-05-02T03:22:07.641Z,9.63
2023-05-02T03:24:34.000Z,10.63
2023-05-02T03:27:00.364Z,15.60
2023-05-02T03:29:26.915Z,24.45
2023-05-02T03:31:53.337Z,17.75
2023-05-02T03:34:22.001Z,19.40
2023-05-02T03:36:48.492Z,24.67
2023-05-02T03:39:15.041Z,27.42
2023-05-02T03:41:42.389Z,22.23
2023-05-02T03:44:08.751Z,33.78
2023-05-02T03:46:35.310Z,32.78
2023-05-02T03:49:01.878Z,29.27
2023-05-02T03:51:28.235Z,33.22
2023-05-02T03:53:55.011Z,32.95
2023-05-02T03:56:21.348Z,29.67
2023-05-02T03:58:48.615Z,27.60
2023-05-02T04:01:16.004Z,19.95
2023-05-02T04:03:42.958Z,20.92
2023-05-02T04:06:09.515Z,17.75
2023-05-02T04:08:36.925Z,21.70
2023-05-02T04:11:03.264Z,21.05
2023-05-02T04:13:29.703Z,19.33
2023-05-02T04:15:56.550Z,13.77
2023-05-02T04:18:22.888Z,14.48
2023-05-02T04:20:50.242Z,12.15
2023-05-02T04:23:17.631Z,20.20
2023-05-02T04:25:54.152Z,17.13
2023-05-02T04:28:21.885Z,17.45
2023-05-02T04:30:48.876Z,12.73
2023-05-02T04:33:15.830Z,11.93
2023-05-02T04:35:42.202Z,9.10
2023-05-02T04:38:08.867Z,7.68
2023-05-02T04:40:35.817Z,9.40
2023-05-02T04:43:02.922Z,9.75
2023-05-02T04:45:29.250Z,9.00
2023-05-02T04:47:56.230Z,18.23
2023-05-02T04:50:22.680Z,13.18
2023-05-02T04:52:49.032Z,13.95
2023-05-02T04:55:15.596Z,9.98
2023-05-02T04:57:42.037Z,9.00
2023-05-02T05:00:08.946Z,20.90
2023-05-02T05:02:35.379Z,18.13
2023-05-02T05:05:02.591Z,23.65
2023-05-02T05:07:29.012Z,21.10
2023-05-02T05:09:55.383Z,12.65
2023-05-02T05:12:21.937Z,13.10
2023-05-02T05:14:48.286Z,10.52
2023-05-02T05:17:14.634Z,9.65
2023-05-02T05:19:41.010Z,14.25
2023-05-02T05:22:07.528Z,10.73
2023-05-02T05:24:34.024Z,13.38
2023-05-02T05:27:00.402Z,15.18
2023-05-02T05:29:26.756Z,14.05
2023-05-02T05:31:53.125Z,15.70
2023-05-02T05:34:19.484Z,13.93
2023-05-02T05:36:45.886Z,12.15
2023-05-02T05:39:13.192Z,12.27
2023-05-02T05:41:39.605Z,13.73
2023-05-02T05:44:05.956Z,11.38
2023-05-02T05:46:32.289Z,16.65
2023-05-02T05:48:58.992Z,20.50
2023-05-02T05:51:27.438Z,14.88
2023-05-02T05:53:53.975Z,11.45
2023-05-02T05:56:20.334Z,12.63
2023-05-02T05:58:46.694Z,15.35
2023-05-02T06:01:13.073Z,11.68
2023-05-02T06:03:39.487Z,15.70
2023-05-02T06:06:05.867Z,13.80
2023-05-02T06:08:32.279Z,11.10
2023-05-02T06:10:58.830Z,9.95
2023-05-02T06:13:25.943Z,7.75
2023-05-02T06:15:52.286Z,9.60
2023-05-02T06:18:18.756Z,9.38
2023-05-02T06:20:45.122Z,11.18
2023-05-02T06:23:11.623Z,11.48
2023-05-02T06:25:38.321Z,10.00
2023-05-02T06:28:04.742Z,10.73
2023-05-02T06:30:31.068Z,8.65
2023-05-02T06:32:57.491Z,7.78
2023-05-02T06:35:24.182Z,7.75
2023-05-02T06:37:50.554Z,20.58
2023-05-02T06:40:16.924Z,18.25
2023-05-02T06:42:43.229Z,15.07
2023-05-02T06:45:09.793Z,14.63
2023-05-02T06:47:36.262Z,11.25
2023-05-02T06:50:03.375Z,15.23
2023-05-02T06:52:29.822Z,12.18
2023-05-02T06:54:56.224Z,15.30
2023-05-02T06:57:22.603Z,18.65
2023-05-02T06:59:49.036Z,17.15
2023-05-02T07:02:15.404Z,15.85
2023-05-02T07:04:41.730Z,11.90
2023-05-02T07:07:08.122Z,14.73
2023-05-02T07:09:34.523Z,13.40
2023-05-02T07:12:04.610Z,13.75
2023-05-02T07:14:32.427Z,11.48
2023-05-02T07:16:59.131Z,9.82
2023-05-02T07:19:26.017Z,9.45
2023-05-02T07:21:52.312Z,10.23
2023-05-02T07:24:18.698Z,11.68
2023-05-02T07:26:45.178Z,12.38
2023-05-02T07:29:11.525Z,7.93
2023-05-02T07:31:38.427Z,9.48
2023-05-02T07:34:04.877Z,10.75
2023-05-02T07:36:31.581Z,9.82
2023-05-02T07:38:57.924Z,7.47
2023-05-02T07:41:24.256Z,5.18
2023-05-02T07:43:50.624Z,8.45
2023-05-02T07:46:17.076Z,13.48
2023-05-02T07:48:44.013Z,12.40
2023-05-02T07:51:10.778Z,16.27
2023-05-02T07:53:37.072Z,10.82
2023-05-02T07:56:04.078Z,9.25
2023-05-02T07:58:30.502Z,9.43
2023-05-02T08:00:57.334Z,6.13
2023-05-02T08:03:23.875Z,6.57
2023-05-02T08:05:50.364Z,7.53
2023-05-02T08:08:16.776Z,10.07
2023-05-02T08:10:43.173Z,6.75
2023-05-02T08:13:09.490Z,5.07
2023-05-02T08:15:35.900Z,10.50
2023-05-02T08:18:02.521Z,7.03
2023-05-02T08:20:28.980Z,4.88
2023-05-02T08:22:55.935Z,4.60
2023-05-02T08:25:23.541Z,6.38
2023-05-02T08:27:49.885Z,10.88
2023-05-02T08:30:16.326Z,9.20
2023-05-02T08:32:42.922Z,10.18
2023-05-02T08:35:09.386Z,9.27
2023-05-02T08:37:36.461Z,8.65
2023-05-02T08:40:03.173Z,9.07
2023-05-02T08:42:33.020Z,10.27
2023-05-02T08:44:59.357Z,11.05
2023-05-02T08:47:27.186Z,7.05
2023-05-02T08:49:54.002Z,5.63
2023-05-02T08:52:20.913Z,6.70
2023-05-02T08:54:47.597Z,6.72
2023-05-02T08:57:13.960Z,6.20
2023-05-02T08:59:42.327Z,6.13
2023-05-02T09:02:29.203Z,6.43
2023-05-02T09:05:00.479Z,8.15
2023-05-02T09:07:27.901Z,7.95
2023-05-02T09:09:54.313Z,7.38
2023-05-02T09:12:25.358Z,6.20
2023-05-02T09:15:09.320Z,6.43
2023-05-02T09:17:41.704Z,7.80
2023-05-02T09:20:08.442Z,7.57
2023-05-02T09:22:34.842Z,5.70
2023-05-02T09:25:01.702Z,5.15
2023-05-02T09:27:28.354Z,5.82
2023-05-02T09:30:14.771Z,4.95
2023-05-02T09:32:48.483Z,5.82
2023-05-02T09:35:23.514Z,5.20
2023-05-02T09:37:56.708Z,4.97
2023-05-02T09:40:24.231Z,5.78
2023-05-02T09:42:51.068Z,4.63
2023-05-02T09:45:24.895Z,7.05
2023-05-02T09:47:52.315Z,5.45
2023-05-02T09:50:38.324Z,3.00
2023-05-02T09:53:05.671Z,3.13
2023-05-02T09:55:32.346Z,3.45
2023-05-02T09:57:59.557Z,3.22
2023-05-02T10:00:42.503Z,4.13
2023-05-02T10:03:09.186Z,6.22
2023-05-02T10:05:39.175Z,4.43
2023-05-02T10:08:06.786Z,5.30
2023-05-02T10:10:35.997Z,3.88
2023-05-02T10:13:03.925Z,3.85
2023-05-02T10:15:31.660Z,3.47
2023-05-02T10:18:03.793Z,2.20
2023-05-02T10:20:35.108Z,2.35
2023-05-02T10:23:04.511Z,2.33
2023-05-02T10:25:32.181Z,2.63
2023-05-02T10:27:59.506Z,3.72
2023-05-02T10:30:26.263Z,2.67
2023-05-02T10:32:56.242Z,2.88
2023-05-02T10:35:23.084Z,2.17
2023-05-02T10:37:51.047Z,3.78
2023-05-02T10:40:18.358Z,4.75
2023-05-02T10:42:46.181Z,2.92
2023-05-02T10:45:31.591Z,4.13
2023-05-02T10:48:16.963Z,2.28
2023-05-02T10:51:01.841Z,1.80
2023-05-02T10:53:29.465Z,3.45
2023-05-02T10:56:08.453Z,3.50
2023-05-02T10:58:34.885Z,4.28
2023-05-02T11:01:20.138Z,4.55
2023-05-02T11:04:06.837Z,2.95
2023-05-02T11:06:37.177Z,4.80
2023-05-02T11:09:13.773Z,5.18
2023-05-02T11:11:41.524Z,6.22
2023-05-02T11:14:08.310Z,5.43
2023-05-02T11:16:53.604Z,6.55
2023-05-02T11:19:20.069Z,5.72
2023-05-02T11:21:46.370Z,5.43
2023-05-02T11:24:31.752Z,3.85
2023-05-02T11:27:18.369Z,4.90
2023-05-02T11:29:54.574Z,5.47
2023-05-02T11:32:21.727Z,5.22
2023-05-02T11:34:50.821Z,7.05
2023-05-02T11:37:17.564Z,5.50
2023-05-02T11:39:44.113Z,7.78
2023-05-02T11:42:10.565Z,7.32
2023-05-02T11:44:55.160Z,8.32
2023-05-02T11:47:21.609Z,8.48
2023-05-02T11:49:48.037Z,7.30
2023-05-02T11:52:16.035Z,7.18
2023-05-02T11:54:42.428Z,6.85
2023-05-02T11:57:08.791Z,5.50
2023-05-02T11:59:54.331Z,6.53
2023-05-02T12:02:21.472Z,6.28
2023-05-02T12:04:47.878Z,5.18
2023-05-02T12:07:15.089Z,4.95
2023-05-02T12:09:54.060Z,7.85
2023-05-02T12:12:21.811Z,6.60
2023-05-02T12:14:48.512Z,7.38
2023-05-02T12:17:15.257Z,7.43
2023-05-02T12:19:41.670Z,6.13
2023-05-02T12:22:09.075Z,6.35
2023-05-02T12:24:36.428Z,9.80
2023-05-02T12:27:09.184Z,9.98
2023-05-02T12:29:39.595Z,6.80
2023-05-02T12:32:05.928Z,3.90
2023-05-02T12:34:32.860Z,5.68
2023-05-02T12:36:59.444Z,4.68
2023-05-02T12:39:36.042Z,3.42
2023-05-02T12:42:12.426Z,4.10
2023-05-02T12:44:39.481Z,5.40
2023-05-02T12:47:05.976Z,4.22
2023-05-02T12:49:32.357Z,3.40
2023-05-02T12:51:59.398Z,5.18
2023-05-02T12:54:26.725Z,3.35
2023-05-02T12:56:53.083Z,4.90
2023-05-02T12:59:29.074Z,5.57
2023-05-02T13:01:55.500Z,8.52
2023-05-02T13:04:22.007Z,6.82
2023-05-02T13:06:48.548Z,4.65
2023-05-02T13:09:15.049Z,6.25
2023-05-02T13:11:42.610Z,8.88
2023-05-02T13:14:11.413Z,10.32
2023-05-02T13:16:37.991Z,7.95
2023-05-02T13:19:04.532Z,5.20
2023-05-02T13:21:31.638Z,3.53
2023-05-02T13:23:58.936Z,3.83
2023-05-02T13:26:25.294Z,3.88
2023-05-02T13:28:51.636Z,2.63
2023-05-02T13:31:18.055Z,2.63
2023-05-02T13:33:44.441Z,3.08
2023-05-02T13:36:11.033Z,5.00
2023-05-02T13:38:37.443Z,2.72
2023-05-02T13:41:03.779Z,1.98
2023-05-02T13:43:30.139Z,3.80
2023-05-02T13:45:56.662Z,2.38
2023-05-02T13:48:23.280Z,1.90
2023-05-02T13:50:49.624Z,2.15
2023-05-02T13:53:16.256Z,4.40
2023-05-02T13:55:42.571Z,3.50
2023-05-02T13:58:08.870Z,3.78
2023-05-02T14:00:35.667Z,4.00
2023-05-02T14:03:02.083Z,3.80
2023-05-02T14:05:28.494Z,2.13
2023-05-02T14:07:54.979Z,3.22
2023-05-02T14:10:21.580Z,1.60
2023-05-02T14:12:48.236Z,3.55
2023-05-02T14:15:14.898Z,2.40
2023-05-02T14:17:41.350Z,2.47
2023-05-02T14:20:10.697Z,2.42
2023-05-02T14:22:37.148Z,3.67
2023-05-02T14:25:03.534Z,3.70
2023-05-02T14:27:30.056Z,1.90
2023-05-02T14:29:56.483Z,2.20
2023-05-02T14:32:22.882Z,2.38
2023-05-02T14:34:49.353Z,2.75
2023-05-02T14:37:15.699Z,3.95
2023-05-02T14:39:42.927Z,2.40
2023-05-02T14:42:09.335Z,2.72
2023-05-02T14:44:35.704Z,4.15
2023-05-02T14:47:02.631Z,4.18
2023-05-02T14:49:28.942Z,3.55
2023-05-02T14:51:56.381Z,2.53
2023-05-02T14:54:29.635Z,3.40
2023-05-02T14:56:56.888Z,2.92
2023-05-02T14:59:23.240Z,2.60
2023-05-02T15:01:51.205Z,2.13
2023-05-02T15:04:19.904Z,2.53
2023-05-02T15:06:48.058Z,2.90
2023-05-02T15:09:14.921Z,2.40
2023-05-02T15:11:41.530Z,3.53
2023-05-02T15:14:07.923Z,2.40
2023-05-02T15:16:34.462Z,3.42
2023-05-02T15:19:00.809Z,3.00
2023-05-02T15:21:27.162Z,2.85
2023-05-02T15:23:53.757Z,2.13
2023-05-02T15:26:20.129Z,2.70
2023-05-02T15:28:46.439Z,2.72
2023-05-02T15:31:12.863Z,3.03
2023-05-02T15:33:39.208Z,3.75
2023-05-02T15:36:05.746Z,2.88
2023-05-02T15:38:34.771Z,2.05
2023-05-02T15:41:01.121Z,2.17
2023-05-02T15:43:27.615Z,3.50
2023-05-02T15:45:55.276Z,4.15
2023-05-02T15:48:21.750Z,4.05
2023-05-02T15:50:48.517Z,3.28
2023-05-02T15:53:16.079Z,5.80
2023-05-02T15:55:43.164Z,3.25
2023-05-02T15:58:09.928Z,5.15
2023-05-02T16:00:36.538Z,3.13
2023-05-02T16:03:04.117Z,2.08
2023-05-02T16:05:31.005Z,2.78
2023-05-02T16:07:57.783Z,2.95
2023-05-02T16:10:24.146Z,3.13
2023-05-02T16:12:50.562Z,2.65
2023-05-02T16:15:17.227Z,3.45
2023-05-02T16:17:43.707Z,2.65
2023-05-02T16:20:11.367Z,1.40
2023-05-02T16:22:39.251Z,2.80
2023-05-02T16:25:05.777Z,2.15
2023-05-02T16:27:33.137Z,3.63
2023-05-02T16:30:00.008Z,3.63
2023-05-02T16:32:28.039Z,1.90
2023-05-02T16:34:54.458Z,2.60
2023-05-02T16:37:21.076Z,3.45
2023-05-02T16:39:47.402Z,2.70
2023-05-02T16:42:13.709Z,2.95
2023-05-02T16:44:40.322Z,2.08
2023-05-02T16:47:09.835Z,2.05
2023-05-02T16:49:36.262Z,2.38
2023-05-02T16:52:02.688Z,2.75
2023-05-02T16:54:29.043Z,1.67
2023-05-02T16:56:55.808Z,3.58
2023-05-02T16:59:22.282Z,2.13
2023-05-02T17:01:49.754Z,1.10
2023-05-02T17:04:16.933Z,1.50
2023-05-02T17:06:43.311Z,1.20
2023-05-02T17:09:09.927Z,1.13
2023-05-02T17:11:36.336Z,1.98
2023-05-02T17:14:02.698Z,1.42
2023-05-02T17:16:29.130Z,2.05
2023-05-02T17:18:55.651Z,1.98
2023-05-02T17:21:22.114Z,2.67
2023-05-02T17:23:48.705Z,1.17
2023-05-02T17:26:15.775Z,0.88
2023-05-02T17:28:43.692Z,2.53
2023-05-02T17:31:10.581Z,1.45
2023-05-02T17:33:37.190Z,1.17
2023-05-02T17:36:04.175Z,1.67
2023-05-02T17:38:30.669Z,1.77
2023-05-02T17:40:57.112Z,1.20
2023-05-02T17:43:23.465Z,1.20
2023-05-02T17:45:49.972Z,1.25
2023-05-02T17:48:16.357Z,1.30
2023-05-02T17:50:42.780Z,2.13
2023-05-02T17:53:09.306Z,1.35
2023-05-02T17:55:36.327Z,1.52
2023-05-02T17:58:02.848Z,1.25
2023-05-02T18:00:32.269Z,2.03
2023-05-02T18:02:58.810Z,1.17
2023-05-02T18:05:28.204Z,1.70
2023-05-02T18:07:55.650Z,2.05
2023-05-02T18:10:22.016Z,2.65
2023-05-02T18:12:48.963Z,2.30
2023-05-02T18:15:15.309Z,1.50
2023-05-02T18:17:41.693Z,1.52
2023-05-02T18:20:10.011Z,1.60
2023-05-02T18:22:36.893Z,2.00
2023-05-02T18:25:04.042Z,1.88
2023-05-02T18:27:31.026Z,2.92
2023-05-02T18:29:57.508Z,1.38
2023-05-02T18:32:25.804Z,1.73
2023-05-02T18:34:52.237Z,1.25
2023-05-02T18:37:18.583Z,0.80
2023-05-02T18:39:44.946Z,2.05
2023-05-02T18:42:12.979Z,1.00
2023-05-02T18:44:39.294Z,1.23
2023-05-02T18:47:05.695Z,2.58
2023-05-02T18:49:32.014Z,1.55
2023-05-02T18:51:58.536Z,1.33
2023-05-02T18:54:26.140Z,1.75
2023-05-02T18:56:52.534Z,1.70
2023-05-02T18:59:19.028Z,1.20
2023-05-02T19:01:46.146Z,2.65
2023-05-02T19:04:12.480Z,1.10
2023-05-02T19:06:38.855Z,1.02
2023-05-02T19:09:05.598Z,1.73
2023-05-02T19:11:31.932Z,2.15
2023-05-02T19:14:00.632Z,0.90
2023-05-02T19:16:28.998Z,0.55
2023-05-02T19:18:57.007Z,1.02
2023-05-02T19:21:23.672Z,0.52
2023-05-02T19:23:50.397Z,0.60
2023-05-02T19:26:17.351Z,0.52
2023-05-02T19:28:43.885Z,1.27
2023-05-02T19:31:11.289Z,0.70
2023-05-02T19:33:41.053Z,0.63
2023-05-02T19:36:07.797Z,0.40
2023-05-02T19:38:34.715Z,0.60
2023-05-02T19:41:01.292Z,0.47
2023-05-02T19:43:28.162Z,0.50
2023-05-02T19:45:54.652Z,0.40
2023-05-02T19:48:22.851Z,0.38
2023-05-02T19:50:49.798Z,0.30
2023-05-02T19:53:16.169Z,0.35
2023-05-02T19:55:42.528Z,0.30
2023-05-02T19:58:08.864Z,0.30
2023-05-02T20:00:35.473Z,0.50
2023-05-02T20:03:02.313Z,0.75
2023-05-02T20:05:28.731Z,0.40
2023-05-02T20:07:55.081Z,0.40
2023-05-02T20:10:21.547Z,0.35
2023-05-02T20:12:47.859Z,0.50
2023-05-02T20:15:14.612Z,0.40
2023-05-02T20:17:41.045Z,0.52
2023-05-02T20:20:08.445Z,0.82
2023-05-02T20:22:35.185Z,0.50
2023-05-02T20:25:01.557Z,0.32
2023-05-02T20:27:27.840Z,0.60
2023-05-02T20:29:54.209Z,1.05
2023-05-02T20:32:21.627Z,0.40
2023-05-02T20:34:48.200Z,0.68
2023-05-02T20:37:14.497Z,0.98
2023-05-02T20:39:40.944Z,0.68
2023-05-02T20:42:07.304Z,1.30
2023-05-02T20:44:33.681Z,0.70
2023-05-02T20:47:00.361Z,0.90
2023-05-02T20:49:26.764Z,0.63
2023-05-02T20:51:53.312Z,0.95
2023-05-02T20:54:19.659Z,0.85
2023-05-02T20:56:45.989Z,1.33
2023-05-02T20:59:12.448Z,0.77
2023-05-02T21:01:39.227Z,1.55
2023-05-02T21:04:05.850Z,0.70
2023-05-02T21:06:32.659Z,1.13
2023-05-02T21:08:59.114Z,0.68
2023-05-02T21:11:25.627Z,0.30
2023-05-02T21:13:51.912Z,0.77
2023-05-02T21:16:19.133Z,0.40
2023-05-02T21:18:48.390Z,0.60
2023-05-02T21:21:14.731Z,0.40
2023-05-02T21:23:41.022Z,0.50
2023-05-02T21:26:07.548Z,0.47
2023-05-02T21:28:33.901Z,0.40
2023-05-02T21:31:01.424Z,0.40
2023-05-02T21:33:27.766Z,0.40
2023-05-02T21:35:57.681Z,0.38
2023-05-02T21:38:24.536Z,0.40
2023-05-02T21:40:51.298Z,0.52
2023-05-02T21:43:17.853Z,0.50
2023-05-02T21:45:48.340Z,0.57
2023-05-02T21:48:15.428Z,0.75
2023-05-02T21:50:42.505Z,0.40
2023-05-02T21:53:09.220Z,0.65
2023-05-02T21:55:44.909Z,0.40
2023-05-02T21:58:11.463Z,0.40
2023-05-02T22:00:38.439Z,0.98
2023-05-02T22:03:11.335Z,0.40
2023-05-02T22:05:39.941Z,0.50
2023-05-02T22:08:09.970Z,0.50
2023-05-02T22:10:37.929Z,1.38
2023-05-02T22:13:04.678Z,1.10
2023-05-02T22:15:31.486Z,1.05
2023-05-02T22:17:58.361Z,0.80
2023-05-02T22:20:28.502Z,0.52
2023-05-02T22:22:54.868Z,0.63
2023-05-02T22:25:21.224Z,0.45
2023-05-02T22:27:47.606Z,0.45
2023-05-02T22:30:13.978Z,1.75
2023-05-02T22:32:41.317Z,1.13
2023-05-02T22:35:08.864Z,0.20
2023-05-02T22:37:35.244Z,1.67
2023-05-02T22:40:01.902Z,1.88
2023-05-02T22:42:28.488Z,2.65
2023-05-02T22:44:54.955Z,0.40
2023-05-02T22:47:21.839Z,0.50
2023-05-02T22:49:49.124Z,0.63
2023-05-02T22:52:18.333Z,0.68
2023-05-02T22:54:44.862Z,0.30
2023-05-02T22:57:11.229Z,0.30
2023-05-02T22:59:37.540Z,0.30
2023-05-02T23:02:04.093Z,0.30
2023-05-02T23:04:32.839Z,0.52
2023-05-02T23:06:59.578Z,0.30
2023-05-02T23:09:26.015Z,0.40
2023-05-02T23:11:52.465Z,0.20
2023-05-02T23:14:20.637Z,0.40
2023-05-02T23:16:49.819Z,0.38
2023-05-02T23:19:17.034Z,0.35
2023-05-02T23:21:43.434Z,0.38
2023-05-02T23:24:10.629Z,0.30
2023-05-02T23:26:36.908Z,0.20
2023-05-02T23:29:03.210Z,0.22
2023-05-02T23:31:29.700Z,0.30
2023-05-02T23:33:56.054Z,0.40
2023-05-02T23:36:22.382Z,0.30
2023-05-02T23:38:49.693Z,0.30
2023-05-02T23:41:16.073Z,0.30
2023-05-02T23:43:42.439Z,0.30
2023-05-02T23:46:08.977Z,0.52
2023-05-02T23:48:35.394Z,0.40
2023-05-02T23:51:01.762Z,0.30
2023-05-02T23:53:28.292Z,0.30
2023-05-02T23:55:54.684Z,0.30
2023-05-02T23:58:21.067Z,0.30
